Stations météo

réclame
Mon MeteoGroup
Passo Rolle, Italie (16021): Température de l'air & dewpoint: 15.01.2019 17:00:00 - 21.01.2019 17:00:00 (CET)Passo Rolle, Italie (16021): Vitesse du vent: 15.01.2019 17:00:00 - 21.01.2019 17:00:00 (CET)Passo Rolle, Italie (16021): Direction du vent: 15.01.2019 17:00:00 - 21.01.2019 17:00:00 (CET)Passo Rolle, Italie (16021): visibility: 15.01.2019 17:00:00 - 21.01.2019 17:00:00 (CET)
Date & Time tt [°C] td [°C] ff [km/h] ff [knt] dd vv [km]
21.01.2019 17:00:00 - - - - - -
21.01.2019 16:00:00 -5,0 -12,6 9 5 WNW 50
21.01.2019 15:00:00 -5,0 -12,0 5 3 NNW 10
21.01.2019 14:00:00 -6,0 -13,0 8 4 NE 10
21.01.2019 13:00:00 -5,6 -12,1 5 3 NNE 70
21.01.2019 12:00:00 -6,0 -12,0 9 5 ENE 10
21.01.2019 11:00:00 -6,0 -12,0 8 4 NE 10
21.01.2019 10:00:00 -8,2 -12,2 11 6 NE 70
21.01.2019 09:00:00 -8,0 -12,0 4 2 ENE 10
21.01.2019 08:00:00 -8,0 -12,0 4 2 E 10
21.01.2019 07:00:00 -8,2 -11,8 5 3 E 70
21.01.2019 06:00:00 -8,0 -12,0 8 4 E 10
21.01.2019 05:00:00 -8,0 -13,0 11 6 ESE 10
21.01.2019 04:00:00 -7,8 -12,1 5 3 E 50
21.01.2019 03:00:00 - - - - - -
21.01.2019 02:00:00 - - - - - -
21.01.2019 01:00:00 -7,8 -12,9 2 1 ESE 50
21.01.2019 00:00:00 - - - - - -
20.01.2019 23:00:00 - - - - - -
20.01.2019 22:00:00 -7,2 -12,6 2 1 SE 50
20.01.2019 21:00:00 - - - - - -
20.01.2019 20:00:00 - - - - - -
20.01.2019 19:00:00 -6,8 -10,7 2 1 WNW 50
20.01.2019 18:00:00 -6,0 -12,0 4 2 WNW 10
20.01.2019 17:00:00 -4,0 -10,0 2 1 NNW 10
20.01.2019 16:00:00 -4,2 -10,2 4 2 SE 70
20.01.2019 15:00:00 -4,0 -10,0 9 5 SE 10
20.01.2019 14:00:00 -5,0 -11,0 8 4 SE 10
20.01.2019 13:00:00 -5,2 -12,2 8 4 SE 72
20.01.2019 12:00:00 -7,0 -12,0 0 0 N 10
20.01.2019 11:00:00 -8,0 -13,0 0 0 N 10
20.01.2019 10:00:00 -8,6 -13,1 0 0 N 72
20.01.2019 09:00:00 -9,0 -13,0 8 4 N 10
20.01.2019 08:00:00 - - - - - -
20.01.2019 07:00:00 -8,2 -12,7 9 5 N 30
20.01.2019 06:00:00 -8,0 -12,0 8 4 NNW 10
20.01.2019 05:00:00 -8,0 -14,0 8 4 N 10
20.01.2019 04:00:00 -7,8 -12,0 8 4 N 10
20.01.2019 03:00:00 - - - - - -
20.01.2019 02:00:00 - - - - - -
20.01.2019 01:00:00 -8,2 -9,6 4 2 NNW 10
20.01.2019 00:00:00 - - - - - -
19.01.2019 23:00:00 - - - - - -
19.01.2019 22:00:00 -7,6 -9,0 4 2 WSW 10
19.01.2019 21:00:00 - - - - - -
19.01.2019 20:00:00 - - - - - -
19.01.2019 19:00:00 -7,6 -9,0 5 3 NW 0,6
19.01.2019 18:00:00 -6,0 -8,0 4 2 NNW 0,8
19.01.2019 17:00:00 -5,0 -6,0 0 0 N 0,8
19.01.2019 16:00:00 -6,2 -7,6 5 3 ESE 0,8
19.01.2019 15:00:00 -5,0 -8,0 5 3 NNE 10
19.01.2019 14:00:00 -5,0 -8,0 5 3 NNW 10
19.01.2019 13:00:00 -5,8 -7,8 4 2 N 15
19.01.2019 12:00:00 -6,0 -8,0 4 2 ENE 10
19.01.2019 11:00:00 -7,0 -8,0 4 2 E 10
19.01.2019 10:00:00 -7,0 -8,1 4 2 N 0,6
19.01.2019 09:00:00 -8,0 -9,0 4 2 N 0,1
19.01.2019 08:00:00 -7,0 -8,0 9 5 SE 0,1
19.01.2019 07:00:00 -7,2 -8,3 9 5 SE 0,1
19.01.2019 06:00:00 - - - - - -
19.01.2019 05:00:00 -7,0 -8,0 8 4 SSE 0,3
19.01.2019 04:00:00 -6,8 -7,9 9 5 SE 0,3
19.01.2019 03:00:00 - - - - - -
19.01.2019 02:00:00 - - - - - -
19.01.2019 01:00:00 -6,4 -7,5 16 9 SE 0,1
19.01.2019 00:00:00 - - - - - -
18.01.2019 23:00:00 - - - - - -
18.01.2019 22:00:00 -6,2 -7,3 8 4 S 0,1
18.01.2019 21:00:00 - - - - - -
18.01.2019 20:00:00 - - - - - -
18.01.2019 19:00:00 -6,4 -12,1 5 3 ESE 10
18.01.2019 18:00:00 -6,0 -11,0 5 3 SE 10
18.01.2019 17:00:00 - - - - - -
18.01.2019 16:00:00 -4,6 -15,0 5 3 NW 80
18.01.2019 15:00:00 -5,0 -15,0 5 3 NW 10
18.01.2019 14:00:00 - - - - - -
18.01.2019 13:00:00 -5,4 -15,2 5 3 NNW 72
18.01.2019 12:00:00 -6,0 -14,0 11 6 NNW 10
18.01.2019 11:00:00 -7,0 -15,0 13 7 WNW 10
18.01.2019 10:00:00 -7,0 -14,5 11 6 NNW 80
18.01.2019 09:00:00 - - - - - -
18.01.2019 08:00:00 - - - - - -
18.01.2019 07:00:00 -7,6 -11,3 15 8 NNW 50
18.01.2019 06:00:00 - - - - - -
18.01.2019 05:00:00 - - - - - -
18.01.2019 04:00:00 - - - - - -
18.01.2019 03:00:00 - - - - - -
18.01.2019 02:00:00 - - - - - -
18.01.2019 01:00:00 - - - - - -
18.01.2019 00:00:00 - - - - - -
17.01.2019 23:00:00 - - - - - -
17.01.2019 22:00:00 -3,0 -4,4 18 10 SE 0,6
17.01.2019 21:00:00 - - - - - -
17.01.2019 20:00:00 - - - - - -
17.01.2019 19:00:00 -3,4 -4,0 18 10 SE 0,6
17.01.2019 18:00:00 - - - - - -
17.01.2019 17:00:00 - - - - - -
17.01.2019 16:00:00 -3,4 -3,8 18 10 SE 0,9
17.01.2019 15:00:00 -3,0 -4,0 22 12 SE 10
17.01.2019 14:00:00 -3,0 -4,0 16 9 SE 10
17.01.2019 13:00:00 -2,8 -4,2 22 12 SE 10
17.01.2019 12:00:00 -3,0 -4,0 22 12 SE 10
17.01.2019 11:00:00 -3,0 -4,0 18 10 ESE 10
17.01.2019 10:00:00 -3,0 -3,8 16 9 SE 6
17.01.2019 09:00:00 - - - - - -
17.01.2019 08:00:00 -3,0 -4,0 8 4 SSE 10
17.01.2019 07:00:00 -3,4 -5,7 11 6 SSE 30
17.01.2019 06:00:00 - - - - - -
17.01.2019 05:00:00 - - - - - -
17.01.2019 04:00:00 -3,4 -4,0 8 4 N 10
17.01.2019 03:00:00 - - - - - -
17.01.2019 02:00:00 - - - - - -
17.01.2019 01:00:00 -4,0 -4,4 4 2 NNW 10
17.01.2019 00:00:00 - - - - - -
16.01.2019 23:00:00 - - - - - -
16.01.2019 22:00:00 -4,6 -5,0 8 4 NNW 10
16.01.2019 21:00:00 - - - - - -
16.01.2019 20:00:00 - - - - - -
16.01.2019 19:00:00 -4,4 -6,1 8 4 NNW 10
16.01.2019 18:00:00 -4,0 -10,0 9 5 NW 10
16.01.2019 17:00:00 - - - - - -
16.01.2019 16:00:00 -2,4 -12,4 8 4 NNW 40
16.01.2019 15:00:00 0,0 -12,0 8 4 WNW 10
16.01.2019 14:00:00 0,0 -12,0 5 3 WSW 10
16.01.2019 13:00:00 -1,0 -12,6 5 3 W 50
16.01.2019 12:00:00 -1,0 -14,0 8 4 WNW 10
16.01.2019 11:00:00 0,0 -15,0 9 5 NNW 10
16.01.2019 10:00:00 -0,6 -14,9 5 3 W 50
16.01.2019 09:00:00 -1,0 -15,0 9 5 NW 10
16.01.2019 08:00:00 -1,0 -15,0 9 5 NNW 10
16.01.2019 07:00:00 -1,4 -15,6 5 3 NNW 12
16.01.2019 06:00:00 -2,0 -15,0 9 5 NNE 10
16.01.2019 05:00:00 - - - - - -
16.01.2019 04:00:00 -1,6 -15,8 4 2 N 10
16.01.2019 03:00:00 - - - - - -
16.01.2019 02:00:00 - - - - - -
16.01.2019 01:00:00 -2,6 -15,0 15 8 NW 10
16.01.2019 00:00:00 - - - - - -
15.01.2019 23:00:00 - - - - - -
15.01.2019 22:00:00 -3,6 -15,0 16 9 NNE 10
15.01.2019 21:00:00 - - - - - -
15.01.2019 20:00:00 - - - - - -
15.01.2019 19:00:00 -4,8 -15,7 9 5 NNW 10
15.01.2019 18:00:00 -6,0 -16,0 11 6 NNW 10
15.01.2019 17:00:00 -5,0 -17,0 11 6 N 10

tt = Température de l'air
td = dewpoint
ff = Vitesse du vent
dd = Direction du vent
vv = visibility

stations d'obs. à proximité